createdAt,value
2018-09-05T00:01:51.604Z,12.90
2018-09-05T00:04:19.777Z,12.60
2018-09-05T00:06:47.988Z,17.63
2018-09-05T00:09:16.538Z,13.90
2018-09-05T00:11:44.736Z,16.27
2018-09-05T00:14:12.947Z,14.43
2018-09-05T00:16:41.164Z,18.57
2018-09-05T00:19:09.780Z,14.63
2018-09-05T00:21:37.910Z,13.47
2018-09-05T00:24:06.074Z,16.57
2018-09-05T00:26:34.848Z,17.90
2018-09-05T00:29:03.038Z,15.80
2018-09-05T00:31:31.224Z,14.67
2018-09-05T00:33:59.716Z,14.77
2018-09-05T00:36:27.861Z,15.23
2018-09-05T00:38:56.011Z,14.60
2018-09-05T00:41:24.201Z,15.13
2018-09-05T00:43:52.392Z,16.93
2018-09-05T00:46:20.535Z,15.60
2018-09-05T00:48:49.024Z,16.47
2018-09-05T00:51:17.185Z,14.80
2018-09-05T00:53:46.008Z,17.93
2018-09-05T00:56:14.218Z,18.10
2018-09-05T00:58:42.773Z,14.60
2018-09-05T01:01:10.941Z,15.83
2018-09-05T01:03:39.404Z,16.37
2018-09-05T01:06:07.605Z,17.40
2018-09-05T01:08:36.294Z,15.10
2018-09-05T01:11:04.436Z,14.03
2018-09-05T01:13:33.328Z,16.80
2018-09-05T01:16:01.833Z,16.87
2018-09-05T01:18:29.977Z,15.37
2018-09-05T01:20:58.208Z,18.03
2018-09-05T01:23:26.377Z,16.93
2018-09-05T01:25:54.548Z,16.67
2018-09-05T01:28:22.740Z,19.33
2018-09-05T01:30:50.906Z,17.23
2018-09-05T01:33:19.085Z,18.63
2018-09-05T01:35:47.258Z,15.20
2018-09-05T01:38:15.435Z,15.87
2018-09-05T01:40:44.288Z,16.30
2018-09-05T01:43:12.527Z,19.10
2018-09-05T01:45:40.676Z,17.80
2018-09-05T01:48:08.841Z,18.70
2018-09-05T01:50:44.059Z,17.37
2018-09-05T01:53:12.827Z,17.87
2018-09-05T01:55:40.968Z,16.50
2018-09-05T01:58:09.147Z,17.60
2018-09-05T02:00:37.983Z,18.00
2018-09-05T02:03:06.157Z,17.37
2018-09-05T02:05:35.003Z,17.47
2018-09-05T02:08:03.624Z,17.30
2018-09-05T02:10:32.388Z,19.43
2018-09-05T02:13:01.558Z,17.00
2018-09-05T02:15:29.882Z,16.13
2018-09-05T02:17:58.348Z,17.20
2018-09-05T02:20:27.369Z,17.40
2018-09-05T02:22:55.544Z,16.67
2018-09-05T02:25:23.737Z,19.47
2018-09-05T02:27:51.944Z,15.30
2018-09-05T02:30:20.806Z,17.10
2018-09-05T02:32:48.979Z,17.23
2018-09-05T02:35:17.160Z,17.40
2018-09-05T02:37:45.495Z,17.23
2018-09-05T02:40:13.669Z,18.90
2018-09-05T02:42:41.882Z,17.43
2018-09-05T02:45:10.093Z,17.20
2018-09-05T02:47:38.261Z,16.73
2018-09-05T02:50:06.424Z,17.67
2018-09-05T02:52:35.106Z,21.43
2018-09-05T02:55:03.640Z,16.37
2018-09-05T02:57:31.813Z,16.57
2018-09-05T03:00:00.651Z,16.70
2018-09-05T03:02:28.860Z,16.63
2018-09-05T03:04:57.073Z,18.77
2018-09-05T03:07:25.544Z,17.80
2018-09-05T03:09:53.704Z,20.50
2018-09-05T03:12:22.464Z,18.97
2018-09-05T03:14:52.388Z,21.40
2018-09-05T03:17:21.193Z,19.43
2018-09-05T03:19:49.697Z,17.23
2018-09-05T03:22:17.861Z,16.77
2018-09-05T03:24:46.162Z,20.00
2018-09-05T03:27:14.621Z,18.23
2018-09-05T03:29:43.133Z,19.03
2018-09-05T03:32:12.089Z,20.30
2018-09-05T03:34:40.784Z,19.73
2018-09-05T03:37:08.990Z,20.20
2018-09-05T03:39:37.557Z,19.77
2018-09-05T03:42:05.861Z,21.00
2018-09-05T03:44:34.993Z,18.90
2018-09-05T03:47:04.404Z,20.97
2018-09-05T03:49:32.560Z,21.63
2018-09-05T03:52:00.813Z,21.40
2018-09-05T03:54:28.981Z,22.50
2018-09-05T03:56:57.809Z,25.00
2018-09-05T03:59:25.950Z,24.23
2018-09-05T04:01:54.136Z,25.77
2018-09-05T04:04:22.745Z,24.70
2018-09-05T04:06:50.890Z,23.87
2018-09-05T04:09:19.052Z,22.27
2018-09-05T04:11:47.228Z,19.97
2018-09-05T04:14:15.388Z,23.97
2018-09-05T04:16:44.593Z,19.53
2018-09-05T04:19:12.773Z,23.27
2018-09-05T04:21:41.616Z,20.37
2018-09-05T04:24:10.380Z,18.90
2018-09-05T04:26:38.513Z,19.10
2018-09-05T04:29:07.301Z,22.00
2018-09-05T04:31:35.495Z,20.50
2018-09-05T04:34:05.568Z,18.20
2018-09-05T04:36:34.069Z,21.00
2018-09-05T04:39:05.043Z,21.10
2018-09-05T04:41:33.246Z,24.43
2018-09-05T04:44:01.436Z,19.53
2018-09-05T04:46:29.956Z,18.83
2018-09-05T04:48:58.497Z,24.00
2018-09-05T04:51:27.003Z,23.17
2018-09-05T04:53:56.184Z,23.13
2018-09-05T04:56:24.370Z,25.93
2018-09-05T04:58:54.534Z,27.60
2018-09-05T05:01:22.801Z,25.13
2018-09-05T05:03:50.992Z,31.40
2018-09-05T05:06:19.668Z,29.60
2018-09-05T05:08:47.849Z,32.40
2018-09-05T05:11:16.937Z,30.80
2018-09-05T05:13:45.113Z,30.03
2018-09-05T05:16:13.338Z,30.03
2018-09-05T05:18:41.526Z,28.07
2018-09-05T05:21:09.721Z,27.33
2018-09-05T05:23:38.069Z,26.43
2018-09-05T05:26:06.220Z,22.40
2018-09-05T05:28:35.013Z,24.87
2018-09-05T05:31:03.184Z,20.73
2018-09-05T05:33:31.396Z,23.87
2018-09-05T05:35:59.929Z,21.87
2018-09-05T05:38:28.096Z,19.57
2018-09-05T05:40:56.923Z,19.33
2018-09-05T05:43:25.124Z,18.03
2018-09-05T05:45:53.586Z,19.27
2018-09-05T05:48:21.965Z,17.80
2018-09-05T05:50:50.173Z,17.33
2018-09-05T05:53:18.335Z,16.90
2018-09-05T05:55:46.911Z,17.63
2018-09-05T05:58:16.047Z,17.80
2018-09-05T06:00:44.232Z,17.17
2018-09-05T06:03:12.387Z,16.90
2018-09-05T06:05:40.553Z,18.97
2018-09-05T06:08:08.758Z,15.60
2018-09-05T06:10:36.943Z,16.37
2018-09-05T06:13:05.157Z,18.40
2018-09-05T06:15:33.382Z,15.90
2018-09-05T06:18:01.585Z,16.80
2018-09-05T06:20:29.646Z,15.90
2018-09-05T06:22:57.808Z,15.40
2018-09-05T06:25:26.593Z,15.57
2018-09-05T06:27:54.793Z,15.57
2018-09-05T06:30:23.016Z,16.67
2018-09-05T06:32:51.665Z,15.73
2018-09-05T06:35:19.825Z,16.60
2018-09-05T06:37:48.044Z,16.67
2018-09-05T06:40:16.242Z,18.83
2018-09-05T06:42:44.404Z,15.07
2018-09-05T06:45:12.559Z,16.43
2018-09-05T06:47:40.716Z,15.90
2018-09-05T06:50:08.896Z,15.83
2018-09-05T06:52:37.090Z,16.83
2018-09-05T06:55:05.232Z,15.17
2018-09-05T06:57:33.419Z,15.43
2018-09-05T07:00:01.654Z,18.43
2018-09-05T07:02:30.333Z,16.73
2018-09-05T07:04:58.952Z,18.13
2018-09-05T07:07:27.557Z,14.20
2018-09-05T07:09:56.062Z,16.97
2018-09-05T07:12:24.432Z,14.20
2018-09-05T07:14:52.668Z,14.20
2018-09-05T07:17:20.910Z,15.87
2018-09-05T07:19:49.036Z,15.97
2018-09-05T07:22:17.201Z,16.87
2018-09-05T07:24:45.337Z,14.63
2018-09-05T07:27:13.831Z,14.13
2018-09-05T07:29:42.374Z,15.50
2018-09-05T07:32:10.517Z,15.80
2018-09-05T07:34:39.321Z,14.83
2018-09-05T07:37:08.007Z,14.47
2018-09-05T07:39:36.234Z,14.37
2018-09-05T07:42:05.025Z,14.47
2018-09-05T07:44:33.653Z,15.77
2018-09-05T07:47:02.807Z,14.40
2018-09-05T07:49:30.992Z,12.90
2018-09-05T07:51:59.521Z,14.13
2018-09-05T07:54:27.722Z,13.57
2018-09-05T07:56:55.923Z,13.43
2018-09-05T07:59:24.046Z,13.53
2018-09-05T08:01:52.241Z,14.27
2018-09-05T08:04:20.430Z,14.90
2018-09-05T08:06:48.536Z,16.03
2018-09-05T08:09:16.725Z,14.20
2018-09-05T08:11:45.439Z,13.87
2018-09-05T08:14:13.604Z,12.37
2018-09-05T08:16:41.796Z,14.50
2018-09-05T08:19:10.004Z,12.97
2018-09-05T08:21:38.567Z,13.53
2018-09-05T08:24:06.779Z,14.30
2018-09-05T08:26:35.008Z,15.97
2018-09-05T08:29:03.740Z,12.83
2018-09-05T08:31:31.928Z,12.13
2018-09-05T08:34:00.564Z,14.30
2018-09-05T08:36:28.984Z,12.20
2018-09-05T08:38:56.939Z,13.27
2018-09-05T08:41:25.051Z,12.27
2018-09-05T08:43:53.303Z,14.53
2018-09-05T08:46:21.440Z,13.23
2018-09-05T08:48:50.153Z,11.80
2018-09-05T08:51:19.449Z,12.43
2018-09-05T08:53:48.726Z,11.70
2018-09-05T08:56:17.009Z,11.77
2018-09-05T08:58:45.328Z,12.30
2018-09-05T09:01:13.484Z,13.53
2018-09-05T09:03:41.684Z,12.60
2018-09-05T09:06:10.241Z,13.23
2018-09-05T09:08:38.397Z,11.50
2018-09-05T09:11:06.556Z,10.90
2018-09-05T09:13:34.738Z,12.73
2018-09-05T09:16:03.525Z,12.17
2018-09-05T09:18:31.700Z,11.10
2018-09-05T09:21:00.668Z,13.27
2018-09-05T09:23:28.804Z,12.90
2018-09-05T09:25:57.609Z,11.17
2018-09-05T09:28:26.298Z,10.43
2018-09-05T09:30:54.300Z,12.00
2018-09-05T09:33:22.445Z,11.33
2018-09-05T09:35:50.648Z,13.00
2018-09-05T09:38:18.816Z,11.50
2018-09-05T09:40:47.000Z,11.27
2018-09-05T09:43:15.168Z,12.67
2018-09-05T09:45:44.229Z,11.97
2018-09-05T09:48:12.368Z,9.97
2018-09-05T09:50:40.470Z,11.40
2018-09-05T09:53:08.650Z,12.17
2018-09-05T09:55:36.771Z,12.27
2018-09-05T09:58:05.136Z,11.03
2018-09-05T10:00:38.856Z,11.87
2018-09-05T10:03:12.301Z,10.20
2018-09-05T10:05:45.892Z,10.70
2018-09-05T10:08:19.596Z,11.05
2018-09-05T10:10:53.304Z,12.30
2018-09-05T10:13:26.676Z,11.43
2018-09-05T10:16:00.273Z,11.05
2018-09-05T10:18:30.107Z,12.27
2018-09-05T10:20:58.879Z,11.18
2018-09-05T10:23:27.264Z,12.20
2018-09-05T10:25:55.632Z,10.23
2018-09-05T10:28:23.792Z,10.70
2018-09-05T10:30:52.067Z,11.13
2018-09-05T10:33:20.856Z,12.30
2018-09-05T10:35:49.064Z,10.93
2018-09-05T10:38:17.260Z,10.57
2018-09-05T10:40:45.698Z,11.37
2018-09-05T10:43:14.372Z,10.37
2018-09-05T10:45:42.540Z,10.27
2018-09-05T10:48:10.779Z,9.50
2018-09-05T10:50:39.986Z,9.20
2018-09-05T10:53:08.288Z,9.63
2018-09-05T10:55:37.588Z,12.57
2018-09-05T10:58:06.084Z,9.37
2018-09-05T11:00:34.170Z,10.37
2018-09-05T11:03:02.741Z,9.63
2018-09-05T11:05:30.896Z,10.60
2018-09-05T11:07:59.085Z,9.87
2018-09-05T11:10:28.290Z,9.57
2018-09-05T11:12:56.365Z,9.50
2018-09-05T11:15:24.637Z,8.63
2018-09-05T11:17:52.789Z,9.27
2018-09-05T11:20:20.937Z,7.17
2018-09-05T11:22:49.088Z,8.37
2018-09-05T11:25:17.233Z,8.60
2018-09-05T11:27:45.457Z,9.10
2018-09-05T11:30:13.584Z,8.67
2018-09-05T11:32:42.222Z,7.90
2018-09-05T11:35:10.648Z,8.03
2018-09-05T11:37:38.764Z,7.80
2018-09-05T11:40:07.178Z,7.27
2018-09-05T11:42:35.839Z,7.47
2018-09-05T11:45:03.972Z,7.77
2018-09-05T11:47:32.390Z,8.90
2018-09-05T11:50:00.845Z,7.83
2018-09-05T11:52:29.421Z,8.70
2018-09-05T11:54:57.564Z,7.37
2018-09-05T11:57:25.746Z,7.70
2018-09-05T11:59:53.902Z,7.23
2018-09-05T12:02:22.104Z,8.33
2018-09-05T12:04:50.329Z,7.80
2018-09-05T12:07:18.463Z,7.60
2018-09-05T12:09:46.604Z,8.80
2018-09-05T12:12:14.848Z,8.90
2018-09-05T12:14:43.916Z,9.30
2018-09-05T12:17:12.064Z,7.97
2018-09-05T12:19:40.287Z,8.27
2018-09-05T12:22:08.408Z,8.60
2018-09-05T12:24:36.559Z,8.67
2018-09-05T12:27:04.744Z,8.00
2018-09-05T12:29:33.747Z,9.47
2018-09-05T12:32:02.184Z,8.37
2018-09-05T12:34:30.905Z,9.33
2018-09-05T12:36:59.073Z,7.70
2018-09-05T12:39:27.228Z,7.83
2018-09-05T12:41:55.724Z,7.90
2018-09-05T12:44:23.895Z,8.27
2018-09-05T12:46:52.052Z,7.30
2018-09-05T12:49:21.452Z,7.63
2018-09-05T12:51:49.606Z,7.87
2018-09-05T12:54:17.800Z,8.17
2018-09-05T12:56:45.961Z,8.57
2018-09-05T12:59:16.075Z,10.60
2018-09-05T13:01:44.185Z,8.53
2018-09-05T13:04:13.192Z,7.83
2018-09-05T13:06:41.380Z,8.43
2018-09-05T13:09:11.373Z,7.70
2018-09-05T13:11:39.537Z,7.83
2018-09-05T13:14:08.328Z,7.83
2018-09-05T13:16:36.712Z,7.90
2018-09-05T13:19:06.523Z,8.30
2018-09-05T13:21:34.805Z,8.07
2018-09-05T13:24:02.968Z,8.20
2018-09-05T13:26:31.156Z,7.60
2018-09-05T13:28:59.326Z,7.90
2018-09-05T13:31:27.469Z,7.30
2018-09-05T13:33:55.633Z,8.67
2018-09-05T13:36:23.741Z,8.80
2018-09-05T13:38:51.877Z,8.37
2018-09-05T13:41:20.722Z,9.07
2018-09-05T13:43:49.188Z,8.40
2018-09-05T13:46:17.680Z,8.30
2018-09-05T13:48:45.829Z,8.53
2018-09-05T13:51:13.977Z,7.00
2018-09-05T13:53:42.960Z,8.37
2018-09-05T13:56:11.134Z,8.43
2018-09-05T13:58:39.844Z,9.27
2018-09-05T14:01:08.584Z,8.60
2018-09-05T14:03:38.714Z,7.80
2018-09-05T14:06:06.884Z,8.27
2018-09-05T14:08:35.090Z,10.53
2018-09-05T14:11:04.389Z,8.60
2018-09-05T14:13:32.558Z,7.90
2018-09-05T14:16:00.712Z,7.43
2018-09-05T14:18:29.914Z,8.37
2018-09-05T14:20:58.140Z,7.70
2018-09-05T14:23:27.204Z,7.40
2018-09-05T14:25:55.404Z,8.33
2018-09-05T14:28:23.947Z,8.37
2018-09-05T14:30:52.100Z,8.40
2018-09-05T14:33:20.309Z,7.80
2018-09-05T14:35:48.479Z,7.13
2018-09-05T14:38:16.609Z,7.77
2018-09-05T14:40:44.761Z,7.77
2018-09-05T14:45:45.217Z,7.60
2018-09-05T14:48:13.442Z,8.37
2018-09-05T14:50:41.523Z,8.10
2018-09-05T14:53:09.701Z,8.27
2018-09-05T14:55:37.901Z,7.73
2018-09-05T14:58:06.392Z,8.10
2018-09-05T15:00:34.520Z,7.57
2018-09-05T15:03:03.193Z,7.87
2018-09-05T15:05:31.386Z,7.33
2018-09-05T15:07:59.562Z,8.43
2018-09-05T15:10:28.016Z,6.93
2018-09-05T15:12:56.157Z,7.93
2018-09-05T15:15:24.601Z,7.80
2018-09-05T15:17:53.072Z,8.80
2018-09-05T15:20:21.665Z,7.27
2018-09-05T15:22:49.830Z,8.17
2018-09-05T15:25:17.971Z,8.10
2018-09-05T15:27:46.127Z,8.53
2018-09-05T15:30:14.273Z,8.13
2018-09-05T15:32:42.453Z,8.83
2018-09-05T15:35:10.630Z,7.70
2018-09-05T15:37:38.779Z,8.50
2018-09-05T15:40:07.404Z,8.03
2018-09-05T15:42:35.532Z,6.90
2018-09-05T15:45:04.225Z,7.03
2018-09-05T15:47:33.108Z,7.77
2018-09-05T15:50:01.275Z,7.40
2018-09-05T15:52:29.421Z,11.87
2018-09-05T15:54:57.597Z,6.97
2018-09-05T15:57:26.057Z,6.47
2018-09-05T15:59:54.411Z,7.70
2018-09-05T16:02:22.553Z,11.53
2018-09-05T16:04:50.780Z,9.03
2018-09-05T16:07:20.297Z,6.70
2018-09-05T16:09:48.781Z,7.17
2018-09-05T16:12:16.973Z,7.60
2018-09-05T16:14:45.124Z,6.97
2018-09-05T16:17:13.300Z,6.80
2018-09-05T16:19:41.473Z,7.50
2018-09-05T16:22:09.624Z,8.80
2018-09-05T16:24:38.017Z,6.90
2018-09-05T16:27:06.193Z,7.17
2018-09-05T16:29:34.660Z,7.13
2018-09-05T16:32:02.845Z,6.30
2018-09-05T16:34:30.964Z,6.90
2018-09-05T16:36:59.807Z,8.50
2018-09-05T16:39:27.940Z,6.40
2018-09-05T16:41:56.101Z,6.50
2018-09-05T16:44:24.996Z,7.93
2018-09-05T16:46:53.192Z,6.30
2018-09-05T16:49:21.644Z,7.70
2018-09-05T16:51:49.840Z,6.37
2018-09-05T16:54:18.012Z,7.10
2018-09-05T16:56:46.186Z,6.83
2018-09-05T16:59:14.352Z,6.63
2018-09-05T17:01:43.516Z,7.50
2018-09-05T17:04:11.702Z,7.37
2018-09-05T17:06:39.865Z,8.20
2018-09-05T17:09:10.040Z,6.80
2018-09-05T17:11:38.252Z,7.10
2018-09-05T17:14:06.416Z,6.90
2018-09-05T17:16:35.657Z,7.80
2018-09-05T17:19:04.800Z,7.10
2018-09-05T17:21:33.168Z,7.70
2018-09-05T17:24:02.384Z,7.30
2018-09-05T17:26:30.925Z,7.73
2018-09-05T17:29:03.124Z,6.77
2018-09-05T17:31:31.419Z,7.40
2018-09-05T17:33:59.565Z,7.10
2018-09-05T17:36:27.732Z,8.63
2018-09-05T17:38:55.916Z,9.13
2018-09-05T17:41:24.099Z,9.00
2018-09-05T17:43:52.232Z,8.63
2018-09-05T17:46:20.412Z,9.27
2018-09-05T17:48:48.588Z,7.50
2018-09-05T17:51:16.745Z,8.73
2018-09-05T17:53:44.971Z,7.73
2018-09-05T17:56:13.068Z,8.30
2018-09-05T17:58:41.205Z,9.90
2018-09-05T18:01:12.668Z,7.73
2018-09-05T18:03:40.844Z,9.03
2018-09-05T18:06:08.964Z,10.70
2018-09-05T18:08:37.136Z,9.00
2018-09-05T18:11:06.218Z,8.00
2018-09-05T18:13:34.576Z,8.90
2018-09-05T18:16:03.176Z,9.00
2018-09-05T18:18:31.818Z,10.57
2018-09-05T18:21:00.273Z,8.93
2018-09-05T18:23:29.168Z,8.00
2018-09-05T18:25:57.440Z,7.90
2018-09-05T18:28:26.204Z,7.67
2018-09-05T18:30:54.373Z,8.67
2018-09-05T18:33:22.562Z,7.07
2018-09-05T18:35:50.721Z,7.97
2018-09-05T18:38:18.882Z,7.00
2018-09-05T18:40:47.092Z,6.77
2018-09-05T18:43:15.656Z,7.60
2018-09-05T18:45:44.274Z,8.80
2018-09-05T18:48:12.490Z,8.07
2018-09-05T18:50:41.232Z,6.70
2018-09-05T18:53:10.224Z,7.83
2018-09-05T18:55:39.953Z,7.60
2018-09-05T18:58:08.315Z,9.03
2018-09-05T19:00:36.973Z,7.17
2018-09-05T19:03:05.281Z,7.57
2018-09-05T19:05:33.804Z,7.47
2018-09-05T19:08:02.728Z,7.63
2018-09-05T19:10:30.892Z,7.60
2018-09-05T19:12:59.067Z,7.57
2018-09-05T19:15:27.257Z,7.47
2018-09-05T19:17:55.404Z,8.10
2018-09-05T19:20:23.590Z,8.20
2018-09-05T19:22:51.802Z,7.50
2018-09-05T19:25:19.888Z,6.93
2018-09-05T19:27:48.101Z,7.80
2018-09-05T19:30:16.329Z,8.03
2018-09-05T19:32:45.333Z,8.33
2018-09-05T19:35:13.529Z,8.87
2018-09-05T19:37:41.684Z,9.77
2018-09-05T19:40:09.852Z,17.57
2018-09-05T19:42:38.225Z,11.93
2018-09-05T19:45:06.988Z,8.87
2018-09-05T19:47:35.215Z,9.13
2018-09-05T19:50:04.147Z,9.10
2018-09-05T19:52:32.265Z,6.80
2018-09-05T19:55:00.412Z,6.47
2018-09-05T19:57:28.621Z,6.77
2018-09-05T19:59:56.768Z,11.80
2018-09-05T20:02:25.016Z,7.70
2018-09-05T20:04:53.178Z,6.70
2018-09-05T20:07:21.376Z,6.27
2018-09-05T20:09:49.519Z,10.13
2018-09-05T20:12:17.669Z,7.23
2018-09-05T20:14:45.814Z,7.40
2018-09-05T20:17:14.024Z,7.67
2018-09-05T20:19:42.200Z,7.57
2018-09-05T20:22:11.144Z,7.30
2018-09-05T20:24:39.596Z,7.23
2018-09-05T20:27:08.972Z,7.47
2018-09-05T20:29:37.137Z,6.20
2018-09-05T20:32:05.665Z,6.57
2018-09-05T20:34:33.836Z,7.13
2018-09-05T20:37:01.983Z,6.60
2018-09-05T20:39:31.181Z,7.60
2018-09-05T20:42:00.547Z,7.70
2018-09-05T20:44:28.729Z,6.83
2018-09-05T20:46:56.893Z,9.27
2018-09-05T20:49:25.106Z,7.90
2018-09-05T20:51:54.508Z,7.10
2018-09-05T20:54:22.680Z,7.53
2018-09-05T20:56:50.852Z,7.30
2018-09-05T20:59:19.268Z,7.97
2018-09-05T21:01:47.427Z,8.83
2018-09-05T21:04:15.573Z,8.70
2018-09-05T21:06:43.965Z,8.70
2018-09-05T21:09:12.144Z,7.37
2018-09-05T21:11:40.329Z,8.60
2018-09-05T21:14:08.515Z,8.57
2018-09-05T21:16:36.711Z,8.47
2018-09-05T21:19:04.845Z,10.33
2018-09-05T21:21:33.009Z,9.57
2018-09-05T21:24:01.214Z,10.80
2018-09-05T21:26:29.388Z,8.87
2018-09-05T21:28:57.780Z,9.77
2018-09-05T21:31:25.935Z,8.47
2018-09-05T21:33:54.643Z,8.70
2018-09-05T21:36:22.967Z,11.10
2018-09-05T21:38:51.046Z,13.73
2018-09-05T21:41:20.436Z,7.97
2018-09-05T21:43:49.369Z,10.03
2018-09-05T21:46:17.533Z,8.83
2018-09-05T21:48:45.641Z,10.00
2018-09-05T21:51:13.816Z,10.43
2018-09-05T21:53:41.956Z,8.90
2018-09-05T21:56:10.109Z,8.10
2018-09-05T21:58:38.270Z,8.23
2018-09-05T22:01:06.757Z,8.53
2018-09-05T22:03:35.985Z,9.70
2018-09-05T22:06:04.172Z,8.27
2018-09-05T22:08:32.385Z,8.37
2018-09-05T22:11:05.971Z,9.30
2018-09-05T22:13:34.230Z,8.60
2018-09-05T22:16:02.289Z,9.70
2018-09-05T22:18:30.474Z,8.43
2018-09-05T22:20:58.648Z,9.30
2018-09-05T22:23:27.476Z,10.03
2018-09-05T22:25:56.248Z,9.73
2018-09-05T22:28:24.422Z,12.97
2018-09-05T22:30:52.592Z,10.27
2018-09-05T22:33:21.736Z,13.33
2018-09-05T22:35:49.848Z,9.13
2018-09-05T22:38:17.988Z,8.83
2018-09-05T22:40:51.560Z,10.70
2018-09-05T22:43:31.133Z,10.03
2018-09-05T22:46:12.607Z,10.40
2018-09-05T22:49:57.424Z,10.80
2018-09-05T22:54:10.504Z,10.13
2018-09-05T22:58:51.256Z,11.90
2018-09-05T23:03:47.961Z,9.70
2018-09-05T23:07:26.284Z,9.73
2018-09-05T23:10:05.962Z,9.93
2018-09-05T23:13:45.181Z,11.17
2018-09-05T23:16:25.134Z,15.23
2018-09-05T23:20:10.688Z,10.27
2018-09-05T23:23:00.479Z,9.43
2018-09-05T23:25:29.308Z,9.57
2018-09-05T23:27:57.832Z,8.90
2018-09-05T23:30:25.998Z,10.03
2018-09-05T23:32:54.140Z,9.30
2018-09-05T23:35:22.276Z,10.30
2018-09-05T23:37:50.403Z,10.00
2018-09-05T23:40:18.768Z,10.30
2018-09-05T23:42:46.937Z,10.57
2018-09-05T23:45:15.347Z,9.80
2018-09-05T23:47:44.324Z,9.87
2018-09-05T23:50:12.493Z,9.03
2018-09-05T23:52:40.671Z,10.10
2018-09-05T23:55:08.838Z,10.77
2018-09-05T23:57:37.349Z,11.30
